Time;durP1;ratioP1;P1;durP2;ratioP2;P2;SDS_P1;SDS_P2;PMS_P1;PMS_P2;Temp;Humidity;BMP_temperature;BMP_pressure;BME280_temperature;BME280_humidity;BME280_pressure;Samples;Min_cycle;Max_cycle;Signal;HPM_P1;HPM_P2
2022/12/09 00:01:31;;;;;;;28.27;13.30;;;;;;;;;;5036029;28;20057;-85
2022/12/09 00:03:56;;;;;;;25.67;12.40;;;;;;;;;;5034589;28;20018;-85
2022/12/09 00:06:23;;;;;;;26.70;12.93;;;;;;;;;;5034690;28;20013;-85
2022/12/09 00:08:48;;;;;;;27.63;13.53;;;;;;;;;;5033875;28;20479;-85
2022/12/09 00:11:14;;;;;;;29.83;14.50;;;;;;;;;;5034685;28;20100;-85
2022/12/09 00:13:39;;;;;;;31.17;13.63;;;;;;;;;;5036066;28;20433;-85
2022/12/09 00:16:06;;;;;;;27.80;13.90;;;;;;;;;;5034147;28;20036;-85
2022/12/09 00:18:31;;;;;;;32.77;15.40;;;;;;;;;;5035928;28;20025;-85
2022/12/09 00:20:56;;;;;;;30.97;14.60;;;;;;;;;;5034211;28;20047;-85
2022/12/09 00:23:22;;;;;;;31.17;14.43;;;;;;;;;;5029031;28;20033;-85
2022/12/09 00:25:47;;;;;;;32.50;14.57;;;;;;;;;;5045981;28;20017;-85
2022/12/09 00:28:13;;;;;;;36.77;15.33;;;;;;;;;;5035789;28;20095;-85
2022/12/09 00:30:38;;;;;;;33.67;14.53;;;;;;;;;;5035603;28;20547;-85
2022/12/09 00:33:03;;;;;;;31.13;14.37;;;;;;;;;;5034245;28;20017;-85
2022/12/09 00:35:28;;;;;;;39.80;15.80;;;;;;;;;;5034120;28;20026;-86
2022/12/09 00:37:53;;;;;;;32.60;14.67;;;;;;;;;;5033179;28;20389;-85
2022/12/09 00:40:19;;;;;;;32.37;15.00;;;;;;;;;;5030811;28;20014;-85
2022/12/09 00:42:44;;;;;;;30.23;13.97;;;;;;;;;;5034042;28;20021;-85
2022/12/09 00:45:09;;;;;;;28.10;13.00;;;;;;;;;;5033974;28;20438;-85
2022/12/09 00:47:34;;;;;;;26.47;13.17;;;;;;;;;;5035475;28;20020;-85
2022/12/09 00:50:00;;;;;;;26.80;12.63;;;;;;;;;;5033989;28;20311;-86
2022/12/09 00:52:25;;;;;;;28.23;12.80;;;;;;;;;;5033638;28;20150;-86
2022/12/09 00:54:50;;;;;;;24.83;12.60;;;;;;;;;;5050080;28;20029;-86
2022/12/09 00:57:15;;;;;;;32.47;13.90;;;;;;;;;;5031883;28;20384;-85
2022/12/09 00:59:41;;;;;;;25.47;12.10;;;;;;;;;;5033860;28;20079;-86
2022/12/09 01:02:06;;;;;;;26.60;12.40;;;;;;;;;;5034139;28;20351;-85
2022/12/09 01:04:31;;;;;;;27.57;13.13;;;;;;;;;;5032314;28;20059;-85
2022/12/09 01:06:56;;;;;;;30.90;13.43;;;;;;;;;;5032884;28;20021;-85
2022/12/09 01:09:22;;;;;;;26.27;11.93;;;;;;;;;;5034943;28;20457;-85
2022/12/09 01:11:47;;;;;;;27.80;12.60;;;;;;;;;;5035518;28;20022;-84
2022/12/09 01:14:12;;;;;;;26.13;12.87;;;;;;;;;;5034497;28;20500;-85
2022/12/09 01:16:37;;;;;;;28.30;11.27;;;;;;;;;;5033346;28;20061;-85
2022/12/09 01:19:04;;;;;;;33.77;13.50;;;;;;;;;;5031892;28;20029;-84
2022/12/09 01:21:30;;;;;;;34.40;12.60;;;;;;;;;;5032052;28;20510;-85
2022/12/09 01:23:55;;;;;;;25.77;12.23;;;;;;;;;;5032980;28;20104;-84
2022/12/09 01:26:20;;;;;;;23.53;12.07;;;;;;;;;;5034561;28;20151;-84
2022/12/09 01:28:49;;;;;;;27.03;13.03;;;;;;;;;;5033039;28;20024;-85
2022/12/09 01:31:16;;;;;;;25.23;12.77;;;;;;;;;;5033083;28;20005;-84
2022/12/09 01:33:42;;;;;;;28.20;13.40;;;;;;;;;;5032459;28;20480;-84
2022/12/09 01:36:09;;;;;;;28.07;12.40;;;;;;;;;;5032915;28;20084;-84
2022/12/09 01:38:35;;;;;;;31.93;13.37;;;;;;;;;;5034357;28;20029;-84
2022/12/09 01:41:00;;;;;;;35.00;15.30;;;;;;;;;;5022482;28;20108;-84
2022/12/09 01:43:25;;;;;;;29.67;11.47;;;;;;;;;;5029319;28;20018;-84
2022/12/09 01:45:51;;;;;;;30.73;13.47;;;;;;;;;;5032649;28;20025;-83
2022/12/09 01:48:17;;;;;;;26.50;12.87;;;;;;;;;;5032146;28;20491;-83
2022/12/09 01:50:49;;;;;;;29.90;13.53;;;;;;;;;;5025391;28;20100;-84
2022/12/09 01:53:16;;;;;;;27.83;12.85;;;;;;;;;;5032735;28;20447;-84
2022/12/09 01:55:42;;;;;;;29.20;13.20;;;;;;;;;;5033429;28;20026;-84
2022/12/09 01:58:07;;;;;;;29.40;12.83;;;;;;;;;;5033873;28;20488;-84
2022/12/09 02:00:33;;;;;;;24.70;12.13;;;;;;;;;;5032987;28;20366;-83
2022/12/09 02:02:58;;;;;;;26.87;12.67;;;;;;;;;;5032572;28;20017;-83
2022/12/09 02:05:24;;;;;;;28.27;12.63;;;;;;;;;;5032574;28;20037;-83
2022/12/09 02:07:49;;;;;;;32.30;12.77;;;;;;;;;;5033101;28;20022;-84
2022/12/09 02:10:15;;;;;;;27.53;13.00;;;;;;;;;;5032458;28;20469;-83
2022/12/09 02:12:53;;;;;;;28.73;12.70;;;;;;;;;;5032036;28;20035;-83
2022/12/09 02:15:29;;;;;;;29.00;12.80;;;;;;;;;;5031700;28;20112;-83
2022/12/09 02:17:58;;;;;;;32.47;13.03;;;;;;;;;;5031281;28;20048;-83
2022/12/09 02:20:31;;;;;;;30.83;13.20;;;;;;;;;;5032203;28;20037;-83
2022/12/09 02:23:09;;;;;;;26.50;12.90;;;;;;;;;;5033524;28;20025;-83
2022/12/09 02:25:48;;;;;;;30.10;13.13;;;;;;;;;;5048461;28;20048;-82
2022/12/09 02:28:32;;;;;;;28.13;12.70;;;;;;;;;;5032875;28;20108;-83
2022/12/09 02:31:16;;;;;;;29.40;12.70;;;;;;;;;;5047558;28;20345;-83
2022/12/09 02:33:41;;;;;;;25.83;12.80;;;;;;;;;;5036008;28;20330;-82
2022/12/09 02:36:10;;;;;;;29.33;12.80;;;;;;;;;;5048332;28;20029;-83
2022/12/09 02:38:38;;;;;;;26.40;12.83;;;;;;;;;;5031741;28;20017;-82
2022/12/09 02:41:10;;;;;;;25.33;11.70;;;;;;;;;;5031127;28;20395;-82
2022/12/09 02:43:38;;;;;;;24.45;12.10;;;;;;;;;;5031637;28;20086;-82
2022/12/09 02:46:05;;;;;;;29.53;12.67;;;;;;;;;;5031424;28;20117;-82
2022/12/09 02:48:32;;;;;;;23.73;11.07;;;;;;;;;;5032952;28;20095;-82
2022/12/09 02:50:58;;;;;;;29.93;12.77;;;;;;;;;;5031358;28;20025;-82
2022/12/09 02:53:24;;;;;;;29.60;11.87;;;;;;;;;;5030668;28;20036;-82
2022/12/09 02:55:50;;;;;;;22.53;11.33;;;;;;;;;;5030921;28;20480;-82
2022/12/09 02:58:16;;;;;;;25.50;12.07;;;;;;;;;;5031105;28;20021;-81
2022/12/09 03:00:41;;;;;;;29.37;12.80;;;;;;;;;;5031190;28;20499;-82
2022/12/09 03:03:09;;;;;;;26.33;13.03;;;;;;;;;;5031120;28;20025;-82
2022/12/09 03:05:38;;;;;;;26.50;11.67;;;;;;;;;;5030582;28;20034;-82
2022/12/09 03:08:29;;;;;;;28.37;12.77;;;;;;;;;;5044760;28;20022;-81
2022/12/09 03:11:03;;;;;;;24.20;11.87;;;;;;;;;;5029771;28;20373;-81
2022/12/09 03:13:47;;;;;;;27.13;12.13;;;;;;;;;;5031358;28;20083;-82
2022/12/09 03:16:20;;;;;;;32.17;12.30;;;;;;;;;;5032314;28;20029;-82
2022/12/09 03:18:47;;;;;;;30.33;14.10;;;;;;;;;;5031249;28;20025;-82
2022/12/09 03:21:14;;;;;;;28.47;13.80;;;;;;;;;;5030972;28;20053;-82
2022/12/09 03:23:42;;;;;;;31.13;13.83;;;;;;;;;;5031098;28;20029;-82
2022/12/09 03:26:07;;;;;;;28.73;13.53;;;;;;;;;;5030147;28;20358;-83
2022/12/09 03:28:35;;;;;;;28.17;13.27;;;;;;;;;;5030416;28;20032;-82
2022/12/09 03:31:03;;;;;;;27.00;13.40;;;;;;;;;;5030820;28;20045;-82
2022/12/09 03:33:29;;;;;;;25.97;12.40;;;;;;;;;;5032489;28;20018;-83
2022/12/09 03:35:56;;;;;;;25.07;12.40;;;;;;;;;;5030922;28;20091;-82
2022/12/09 03:38:25;;;;;;;29.13;13.13;;;;;;;;;;5030775;28;20056;-82
2022/12/09 03:40:56;;;;;;;29.20;14.43;;;;;;;;;;5029899;28;20049;-82
2022/12/09 03:43:23;;;;;;;34.03;15.80;;;;;;;;;;5030676;28;20440;-81
2022/12/09 03:45:50;;;;;;;37.17;15.37;;;;;;;;;;5030904;28;20017;-82
2022/12/09 03:48:15;;;;;;;28.73;13.87;;;;;;;;;;5030504;28;20041;-82
2022/12/09 03:50:46;;;;;;;27.40;12.23;;;;;;;;;;5030555;28;20075;-83
2022/12/09 03:53:14;;;;;;;24.87;12.83;;;;;;;;;;5030697;28;20028;-82
2022/12/09 03:55:45;;;;;;;25.97;13.20;;;;;;;;;;5030008;28;20025;-82
2022/12/09 03:58:11;;;;;;;29.73;12.73;;;;;;;;;;5030006;28;20026;-82
2022/12/09 04:00:37;;;;;;;26.63;12.83;;;;;;;;;;5030421;28;20022;-83
2022/12/09 04:03:03;;;;;;;31.80;14.00;;;;;;;;;;5030627;28;20031;-83
2022/12/09 04:05:28;;;;;;;28.83;13.70;;;;;;;;;;5030620;28;20025;-82
2022/12/09 04:07:53;;;;;;;31.63;14.37;;;;;;;;;;5028036;28;20429;-82
2022/12/09 04:10:19;;;;;;;32.33;14.17;;;;;;;;;;5024261;28;20461;-82
2022/12/09 04:12:44;;;;;;;39.37;14.40;;;;;;;;;;5046994;28;20014;-83
2022/12/09 04:15:09;;;;;;;32.50;13.80;;;;;;;;;;5030638;28;20476;-83
2022/12/09 04:17:34;;;;;;;34.43;13.40;;;;;;;;;;5030366;28;20393;-83
2022/12/09 04:20:00;;;;;;;26.30;13.50;;;;;;;;;;5030146;28;20070;-82
2022/12/09 04:22:25;;;;;;;32.63;14.67;;;;;;;;;;5025040;28;20056;-82
2022/12/09 04:24:50;;;;;;;29.00;13.50;;;;;;;;;;5030524;28;20026;-83
2022/12/09 04:27:15;;;;;;;36.87;14.83;;;;;;;;;;5030484;28;20469;-83
2022/12/09 04:29:41;;;;;;;38.40;13.80;;;;;;;;;;5030162;28;20021;-83
2022/12/09 04:32:06;;;;;;;32.47;13.87;;;;;;;;;;5029869;28;20034;-83
2022/12/09 04:34:32;;;;;;;32.27;13.90;;;;;;;;;;5030369;28;20017;-83
2022/12/09 04:36:57;;;;;;;31.53;13.40;;;;;;;;;;5029699;28;20120;-83
2022/12/09 04:39:23;;;;;;;30.03;12.83;;;;;;;;;;5032115;28;20071;-83
2022/12/09 04:41:48;;;;;;;33.50;13.47;;;;;;;;;;5035437;28;20551;-83
2022/12/09 04:44:13;;;;;;;36.23;14.77;;;;;;;;;;5033741;28;20422;-83
2022/12/09 04:46:38;;;;;;;38.20;16.03;;;;;;;;;;5033942;28;20017;-83
2022/12/09 04:49:03;;;;;;;42.30;16.03;;;;;;;;;;5033981;28;20013;-83
2022/12/09 04:51:29;;;;;;;49.37;17.70;;;;;;;;;;5032744;28;20064;-83
2022/12/09 04:53:54;;;;;;;46.37;16.97;;;;;;;;;;5033954;28;20086;-83
2022/12/09 04:56:20;;;;;;;49.80;17.67;;;;;;;;;;5033708;28;20025;-82
2022/12/09 04:58:46;;;;;;;47.63;18.23;;;;;;;;;;5033276;28;20389;-84
2022/12/09 05:01:12;;;;;;;49.53;18.40;;;;;;;;;;5033571;28;20024;-83
2022/12/09 05:03:38;;;;;;;53.23;19.33;;;;;;;;;;5033429;28;20026;-83
2022/12/09 05:06:07;;;;;;;49.83;17.13;;;;;;;;;;5032472;28;20017;-83
2022/12/09 05:08:32;;;;;;;44.77;17.27;;;;;;;;;;5033554;28;20128;-83
2022/12/09 05:10:57;;;;;;;47.57;17.63;;;;;;;;;;5034565;28;20013;-83
2022/12/09 05:13:25;;;;;;;50.60;18.87;;;;;;;;;;5033565;28;20021;-83
2022/12/09 05:15:51;;;;;;;46.37;16.90;;;;;;;;;;5033232;28;20014;-83
2022/12/09 05:18:16;;;;;;;54.87;17.77;;;;;;;;;;5032826;28;20017;-83
2022/12/09 05:20:41;;;;;;;48.47;17.33;;;;;;;;;;5032525;28;20559;-83
2022/12/09 05:23:07;;;;;;;57.33;18.97;;;;;;;;;;5033377;28;20021;-83
2022/12/09 05:25:32;;;;;;;44.23;17.20;;;;;;;;;;5032987;28;20071;-83
2022/12/09 05:27:57;;;;;;;44.13;17.53;;;;;;;;;;5034516;28;20009;-83
2022/12/09 05:30:23;;;;;;;47.10;18.07;;;;;;;;;;5032977;28;20393;-83
2022/12/09 05:32:48;;;;;;;53.20;17.87;;;;;;;;;;5033534;28;20505;-83
2022/12/09 05:35:13;;;;;;;49.00;17.43;;;;;;;;;;5033204;28;20024;-83
2022/12/09 05:37:38;;;;;;;44.07;16.80;;;;;;;;;;5034380;28;20025;-83
2022/12/09 05:40:04;;;;;;;46.27;18.37;;;;;;;;;;5032863;28;20394;-83
2022/12/09 05:42:29;;;;;;;49.77;18.30;;;;;;;;;;5032983;28;20122;-83
2022/12/09 05:44:54;;;;;;;44.17;16.27;;;;;;;;;;5032794;28;20029;-83
2022/12/09 05:47:20;;;;;;;46.53;17.03;;;;;;;;;;5031698;28;20429;-83
2022/12/09 05:49:45;;;;;;;44.30;17.23;;;;;;;;;;5032777;28;20036;-83
2022/12/09 05:52:13;;;;;;;50.70;16.10;;;;;;;;;;5031857;28;20022;-83
2022/12/09 05:54:38;;;;;;;44.50;16.73;;;;;;;;;;5032655;28;20386;-83
2022/12/09 05:57:03;;;;;;;44.87;16.27;;;;;;;;;;5032352;28;20021;-83
2022/12/09 05:59:28;;;;;;;46.93;17.10;;;;;;;;;;5032529;28;20381;-83
2022/12/09 06:01:53;;;;;;;46.00;15.60;;;;;;;;;;5031543;28;20025;-83
2022/12/09 06:04:19;;;;;;;41.53;16.23;;;;;;;;;;5032329;28;20436;-83
2022/12/09 06:06:44;;;;;;;50.20;17.10;;;;;;;;;;5032574;28;20033;-83
2022/12/09 06:09:10;;;;;;;43.63;15.63;;;;;;;;;;5032331;28;20018;-84
2022/12/09 06:11:36;;;;;;;43.43;15.40;;;;;;;;;;5029084;28;20462;-84
2022/12/09 06:14:01;;;;;;;46.63;16.33;;;;;;;;;;5031798;28;20057;-84
2022/12/09 06:16:26;;;;;;;48.10;16.47;;;;;;;;;;5032295;28;20041;-84
2022/12/09 06:18:51;;;;;;;47.27;17.07;;;;;;;;;;5032312;28;20036;-84
2022/12/09 06:21:17;;;;;;;45.20;14.97;;;;;;;;;;5030883;28;20092;-84
2022/12/09 06:23:43;;;;;;;42.80;14.20;;;;;;;;;;5030581;28;20087;-83
2022/12/09 06:26:28;;;;;;;42.90;14.77;;;;;;;;;;5030670;28;20116;-84
2022/12/09 06:28:54;;;;;;;46.73;16.77;;;;;;;;;;5031336;28;20422;-84
2022/12/09 06:31:19;;;;;;;47.07;15.70;;;;;;;;;;5031845;28;20115;-84
2022/12/09 06:33:45;;;;;;;43.70;15.03;;;;;;;;;;5030988;28;20033;-83
2022/12/09 06:36:10;;;;;;;46.90;14.37;;;;;;;;;;5031992;28;20024;-84
2022/12/09 06:38:35;;;;;;;44.77;13.50;;;;;;;;;;5030575;28;20178;-86
2022/12/09 06:41:04;;;;;;;44.70;14.23;;;;;;;;;;5022892;28;20024;-84
2022/12/09 06:43:29;;;;;;;48.93;14.93;;;;;;;;;;5029912;28;20034;-85
2022/12/09 06:45:54;;;;;;;45.97;14.80;;;;;;;;;;5030910;28;20037;-84
2022/12/09 06:48:19;;;;;;;43.63;14.43;;;;;;;;;;5032005;28;20449;-84
2022/12/09 06:50:45;;;;;;;37.60;14.40;;;;;;;;;;5029325;28;20048;-85
2022/12/09 06:53:10;;;;;;;46.33;14.60;;;;;;;;;;5022254;28;20167;-84
2022/12/09 06:55:35;;;;;;;38.80;13.63;;;;;;;;;;5026448;28;20018;-85
2022/12/09 06:58:01;;;;;;;45.37;13.37;;;;;;;;;;5030470;28;20018;-85
2022/12/09 07:00:26;;;;;;;40.93;12.97;;;;;;;;;;5027225;28;20029;-85
2022/12/09 07:02:52;;;;;;;44.13;14.47;;;;;;;;;;5030260;28;20461;-85
2022/12/09 07:05:17;;;;;;;49.00;13.57;;;;;;;;;;5030117;28;20056;-85
2022/12/09 07:07:42;;;;;;;53.73;15.67;;;;;;;;;;5030817;28;20457;-87
2022/12/09 07:10:08;;;;;;;47.53;14.47;;;;;;;;;;5029392;28;20021;-88
2022/12/09 07:12:33;;;;;;;46.50;14.23;;;;;;;;;;5030223;28;20033;-88
2022/12/09 07:14:58;;;;;;;54.53;17.13;;;;;;;;;;5035190;28;20393;-88
2022/12/09 07:17:24;;;;;;;46.50;14.23;;;;;;;;;;5031946;28;20033;-88
2022/12/09 07:19:49;;;;;;;62.90;16.70;;;;;;;;;;5031593;28;20033;-85
2022/12/09 07:22:14;;;;;;;50.80;14.47;;;;;;;;;;5029430;28;20053;-86
2022/12/09 07:24:40;;;;;;;52.40;16.20;;;;;;;;;;5031029;28;20025;-86
2022/12/09 07:27:06;;;;;;;54.93;16.30;;;;;;;;;;5031156;28;20048;-85
2022/12/09 07:29:32;;;;;;;59.73;17.33;;;;;;;;;;5031169;28;20032;-87
2022/12/09 07:31:57;;;;;;;53.97;16.10;;;;;;;;;;5032762;28;20026;-85
2022/12/09 07:34:23;;;;;;;50.53;16.20;;;;;;;;;;5033302;28;20384;-86
2022/12/09 07:36:48;;;;;;;43.33;14.23;;;;;;;;;;5030415;28;20030;-86
2022/12/09 07:39:14;;;;;;;49.33;14.93;;;;;;;;;;5031331;28;20029;-86
2022/12/09 07:41:40;;;;;;;51.97;15.33;;;;;;;;;;5029654;28;20116;-86
2022/12/09 07:44:05;;;;;;;53.47;14.33;;;;;;;;;;5029086;28;20100;-86
2022/12/09 07:46:30;;;;;;;53.10;15.33;;;;;;;;;;5031585;28;20026;-86
2022/12/09 07:48:55;;;;;;;50.93;15.43;;;;;;;;;;5028207;28;20014;-85
2022/12/09 07:51:21;;;;;;;43.03;14.90;;;;;;;;;;5028184;28;20064;-86
2022/12/09 07:53:46;;;;;;;47.73;15.03;;;;;;;;;;5030797;28;20097;-86
2022/12/09 07:56:15;;;;;;;43.07;14.67;;;;;;;;;;5028465;28;20476;-86
2022/12/09 07:58:41;;;;;;;47.00;13.90;;;;;;;;;;5022784;28;20052;-86
2022/12/09 08:01:07;;;;;;;30.80;12.17;;;;;;;;;;5028489;28;20477;-86
2022/12/09 08:03:32;;;;;;;40.03;13.57;;;;;;;;;;5030999;28;20025;-85
2022/12/09 08:05:57;;;;;;;37.80;12.77;;;;;;;;;;5028172;28;20027;-85
2022/12/09 08:08:22;;;;;;;39.00;13.43;;;;;;;;;;5016511;28;20338;-85
2022/12/09 08:10:48;;;;;;;33.67;11.60;;;;;;;;;;5021401;28;20248;-85
2022/12/09 08:13:13;;;;;;;31.87;11.33;;;;;;;;;;5014694;28;20026;-85
2022/12/09 08:15:39;;;;;;;22.03;9.37;;;;;;;;;;5029863;28;20025;-85
2022/12/09 08:18:04;;;;;;;28.60;10.93;;;;;;;;;;5034110;28;20104;-85
2022/12/09 08:20:29;;;;;;;27.80;10.53;;;;;;;;;;5036237;28;20022;-85
2022/12/09 08:22:54;;;;;;;32.17;11.60;;;;;;;;;;5033981;28;20017;-85
2022/12/09 08:25:20;;;;;;;35.13;11.63;;;;;;;;;;5034279;28;20085;-86
2022/12/09 08:27:45;;;;;;;30.07;11.13;;;;;;;;;;5048036;28;20018;-86
2022/12/09 08:30:11;;;;;;;34.30;13.20;;;;;;;;;;5033532;28;20029;-85
2022/12/09 08:32:36;;;;;;;31.20;10.87;;;;;;;;;;5034647;28;20362;-86
2022/12/09 08:35:02;;;;;;;47.30;13.77;;;;;;;;;;5034079;28;20052;-86
2022/12/09 08:37:27;;;;;;;35.73;12.33;;;;;;;;;;5034510;28;20090;-86
2022/12/09 08:39:52;;;;;;;32.47;12.07;;;;;;;;;;5033153;28;20068;-86
2022/12/09 08:42:17;;;;;;;43.23;13.40;;;;;;;;;;5031794;28;20414;-86
2022/12/09 08:44:43;;;;;;;38.27;12.37;;;;;;;;;;5033845;28;20115;-85
2022/12/09 08:47:08;;;;;;;45.70;13.37;;;;;;;;;;5021472;28;20659;-86
2022/12/09 08:49:33;;;;;;;32.97;11.43;;;;;;;;;;5028847;28;20028;-87
2022/12/09 08:52:00;;;;;;;39.50;12.80;;;;;;;;;;5024547;28;20025;-88
2022/12/09 08:54:26;;;;;;;42.57;13.50;;;;;;;;;;5031058;28;20038;-88
2022/12/09 08:56:56;;;;;;;41.73;12.77;;;;;;;;;;5033258;28;20014;-88
2022/12/09 08:59:21;;;;;;;41.00;13.30;;;;;;;;;;5035740;28;20134;-88
2022/12/09 09:01:48;;;;;;;45.50;12.73;;;;;;;;;;5025541;28;20021;-88
2022/12/09 09:04:16;;;;;;;51.27;13.03;;;;;;;;;;5032124;28;20446;-88
2022/12/09 09:06:42;;;;;;;45.50;13.50;;;;;;;;;;5032116;28;20017;-88
2022/12/09 09:09:08;;;;;;;43.57;13.80;;;;;;;;;;5033572;28;20014;-89
2022/12/09 09:11:33;;;;;;;38.87;12.20;;;;;;;;;;5034477;28;20108;-83
2022/12/09 09:14:01;;;;;;;41.50;13.20;;;;;;;;;;5033741;28;20481;-84
2022/12/09 09:16:26;;;;;;;42.53;14.13;;;;;;;;;;5033696;28;20063;-83
2022/12/09 09:18:52;;;;;;;45.10;13.30;;;;;;;;;;5035028;28;20049;-84
2022/12/09 09:21:18;;;;;;;38.53;12.60;;;;;;;;;;5032662;28;20028;-83
2022/12/09 09:23:44;;;;;;;39.70;13.50;;;;;;;;;;5032486;28;20025;-83
2022/12/09 09:26:19;;;;;;;40.53;13.97;;;;;;;;;;5033279;28;20071;-84
2022/12/09 09:28:45;;;;;;;52.97;13.63;;;;;;;;;;5033697;28;20067;-85
2022/12/09 09:31:13;;;;;;;44.63;12.73;;;;;;;;;;5034364;28;20110;-85
2022/12/09 09:33:38;;;;;;;47.40;13.17;;;;;;;;;;5032343;28;20035;-85
2022/12/09 09:36:04;;;;;;;46.70;13.40;;;;;;;;;;5032626;28;20025;-84
2022/12/09 09:38:31;;;;;;;44.07;13.50;;;;;;;;;;5031211;28;20029;-85
2022/12/09 09:40:57;;;;;;;49.93;13.33;;;;;;;;;;5051084;28;20028;-85
2022/12/09 09:43:25;;;;;;;46.17;13.23;;;;;;;;;;5034164;28;20063;-85
2022/12/09 09:45:52;;;;;;;49.53;13.53;;;;;;;;;;5031995;28;20028;-85
2022/12/09 09:48:19;;;;;;;54.23;13.87;;;;;;;;;;5032132;28;20034;-85
2022/12/09 09:50:51;;;;;;;55.70;15.30;;;;;;;;;;5032096;28;20028;-85
2022/12/09 09:53:29;;;;;;;55.92;13.55;;;;;;;;;;5033729;28;20036;-82
2022/12/09 09:56:05;;;;;;;50.73;14.20;;;;;;;;;;5032447;28;20029;-81
2022/12/09 09:58:42;;;;;;;43.63;12.80;;;;;;;;;;5029745;28;20060;-82
2022/12/09 10:01:09;;;;;;;48.87;11.53;;;;;;;;;;5032308;28;20013;-82
2022/12/09 10:03:34;;;;;;;45.60;12.30;;;;;;;;;;5032087;28;20022;-81
2022/12/09 10:06:04;;;;;;;43.10;13.83;;;;;;;;;;5048621;28;20023;-81
2022/12/09 10:08:48;;;;;;;49.53;13.70;;;;;;;;;;5028228;28;20022;-82
2022/12/09 10:11:16;;;;;;;57.07;14.63;;;;;;;;;;5036448;28;20014;-81
2022/12/09 10:13:53;;;;;;;59.07;15.77;;;;;;;;;;5048257;28;20029;-82
2022/12/09 10:16:28;;;;;;;53.13;14.17;;;;;;;;;;5031901;28;20049;-82
2022/12/09 10:18:56;;;;;;;51.23;13.47;;;;;;;;;;5047030;28;20043;-81
2022/12/09 10:21:21;;;;;;;51.83;14.20;;;;;;;;;;5033224;28;20021;-84
2022/12/09 10:23:47;;;;;;;48.73;13.37;;;;;;;;;;5031435;28;20025;-84
2022/12/09 10:26:16;;;;;;;36.07;12.63;;;;;;;;;;5030931;28;20009;-83
2022/12/09 10:28:44;;;;;;;40.40;13.07;;;;;;;;;;5030706;28;20026;-83
2022/12/09 10:31:10;;;;;;;42.67;13.87;;;;;;;;;;5030607;28;20112;-83
2022/12/09 10:33:36;;;;;;;40.20;13.00;;;;;;;;;;5031360;28;20414;-84
2022/12/09 10:36:02;;;;;;;35.37;12.63;;;;;;;;;;5032800;28;20051;-84
2022/12/09 10:38:28;;;;;;;36.83;12.50;;;;;;;;;;5029018;28;20108;-83
2022/12/09 10:41:11;;;;;;;33.97;12.23;;;;;;;;;;5030258;28;20460;-84
2022/12/09 10:43:37;;;;;;;33.77;13.20;;;;;;;;;;5038686;28;20022;-85
2022/12/09 10:46:19;;;;;;;35.00;10.33;;;;;;;;;;5044052;28;20024;-85
2022/12/09 10:48:47;;;;;;;34.63;12.40;;;;;;;;;;5031011;28;20036;-86
2022/12/09 10:51:15;;;;;;;35.47;12.60;;;;;;;;;;5034290;28;20033;-85
2022/12/09 10:53:48;;;;;;;34.60;12.27;;;;;;;;;;5019968;28;20124;-85
2022/12/09 10:56:21;;;;;;;39.97;12.80;;;;;;;;;;5032749;28;20017;-86
2022/12/09 10:58:46;;;;;;;35.67;13.00;;;;;;;;;;5020869;28;20451;-86
2022/12/09 11:01:13;;;;;;;32.30;11.27;;;;;;;;;;5030591;28;20043;-85
2022/12/09 11:03:45;;;;;;;32.60;11.13;;;;;;;;;;5030339;28;20030;-86
2022/12/09 11:06:13;;;;;;;31.35;11.68;;;;;;;;;;5030186;28;20009;-85
2022/12/09 11:08:40;;;;;;;36.47;13.13;;;;;;;;;;5031599;28;20021;-85
2022/12/09 11:11:05;;;;;;;34.53;13.30;;;;;;;;;;5031176;28;20044;-86
2022/12/09 11:13:36;;;;;;;34.73;11.97;;;;;;;;;;5030364;28;20017;-86
2022/12/09 11:16:03;;;;;;;29.03;11.53;;;;;;;;;;5030706;28;20525;-86
2022/12/09 11:18:31;;;;;;;33.13;11.73;;;;;;;;;;5031126;28;20028;-86
2022/12/09 11:21:00;;;;;;;30.13;11.50;;;;;;;;;;5029629;28;20044;-86
2022/12/09 11:23:26;;;;;;;29.07;10.73;;;;;;;;;;5043840;28;20022;-87
2022/12/09 11:25:53;;;;;;;25.47;9.30;;;;;;;;;;5026963;28;20465;-87
2022/12/09 11:28:22;;;;;;;29.63;11.60;;;;;;;;;;5047550;28;20420;-87
2022/12/09 11:30:57;;;;;;;26.67;9.90;;;;;;;;;;5031245;28;20030;-87
2022/12/09 11:33:24;;;;;;;29.70;10.07;;;;;;;;;;5046384;28;20021;-86
2022/12/09 11:35:50;;;;;;;24.60;10.27;;;;;;;;;;5031677;28;20106;-87
2022/12/09 11:38:34;;;;;;;29.47;11.50;;;;;;;;;;5047450;28;20052;-86
2022/12/09 11:41:02;;;;;;;28.30;11.50;;;;;;;;;;5047085;28;20025;-87
2022/12/09 11:43:31;;;;;;;27.00;10.63;;;;;;;;;;5030557;28;20025;-87
2022/12/09 11:45:56;;;;;;;23.90;8.97;;;;;;;;;;5045271;28;20043;-87
2022/12/09 11:48:29;;;;;;;24.43;10.70;;;;;;;;;;5042671;28;20521;-87
2022/12/09 11:50:54;;;;;;;29.77;11.98;;;;;;;;;;5030453;28;20104;-87
2022/12/09 11:53:25;;;;;;;33.43;12.93;;;;;;;;;;5031231;28;20492;-86
2022/12/09 11:56:03;;;;;;;30.40;12.43;;;;;;;;;;5046036;28;20469;-87
2022/12/09 11:58:48;;;;;;;39.07;13.60;;;;;;;;;;5029489;28;20512;-87
2022/12/09 12:01:19;;;;;;;35.53;12.10;;;;;;;;;;5026891;28;20083;-87
2022/12/09 12:03:51;;;;;;;27.93;10.93;;;;;;;;;;5030266;28;20061;-87
2022/12/09 12:06:39;;;;;;;31.02;10.55;;;;;;;;;;5030853;28;20071;-87
2022/12/09 12:09:10;;;;;;;33.53;12.00;;;;;;;;;;5029838;28;20104;-86
2022/12/09 12:11:39;;;;;;;34.43;12.30;;;;;;;;;;5031974;28;20022;-87
2022/12/09 12:14:19;;;;;;;33.90;12.60;;;;;;;;;;5029833;28;21356;-87
2022/12/09 12:16:48;;;;;;;30.37;10.97;;;;;;;;;;5046319;28;20041;-87
2022/12/09 12:19:29;;;;;;;27.47;11.83;;;;;;;;;;5030308;28;20022;-86
2022/12/09 12:22:06;;;;;;;31.60;11.10;;;;;;;;;;5042976;28;20036;-85
2022/12/09 12:24:50;;;;;;;33.93;12.57;;;;;;;;;;5039943;28;20033;-86
2022/12/09 12:27:21;;;;;;;32.80;12.90;;;;;;;;;;5023383;28;20026;-85
2022/12/09 12:29:52;;;;;;;34.07;13.03;;;;;;;;;;5040817;28;20045;-87
2022/12/09 12:32:20;;;;;;;27.33;11.47;;;;;;;;;;5029393;28;20484;-86
2022/12/09 12:35:00;;;;;;;29.77;12.30;;;;;;;;;;5046817;28;20108;-86
2022/12/09 12:37:29;;;;;;;30.90;11.80;;;;;;;;;;5047079;28;20477;-86
2022/12/09 12:40:09;;;;;;;32.67;12.10;;;;;;;;;;5038880;28;20024;-86
2022/12/09 12:46:15;;;;;;;31.80;12.43;;;;;;;;;;5030118;28;20375;-86
2022/12/09 12:48:28;;;;;;;31.57;11.97;;;;;;;;;;5031890;28;20056;-86
2022/12/09 12:51:29;;;;;;;33.50;11.93;;;;;;;;;;5029409;28;20446;-86
2022/12/09 12:54:00;;;;;;;30.03;10.90;;;;;;;;;;5037736;28;20029;-86
2022/12/09 12:56:30;;;;;;;33.08;10.80;;;;;;;;;;5029116;28;20114;-86
2022/12/09 12:59:19;;;;;;;25.67;9.50;;;;;;;;;;5025780;28;20022;-86
2022/12/09 13:01:52;;;;;;;27.43;10.03;;;;;;;;;;5042545;28;20021;-86
2022/12/09 13:04:20;;;;;;;32.63;12.47;;;;;;;;;;5036334;28;20017;-86
2022/12/09 13:06:49;;;;;;;37.10;12.67;;;;;;;;;;5045533;28;20037;-86
2022/12/09 13:09:28;;;;;;;32.77;11.60;;;;;;;;;;5033284;28;20024;-86
2022/12/09 13:12:02;;;;;;;30.70;10.83;;;;;;;;;;5033517;28;20021;-86
2022/12/09 13:14:30;;;;;;;32.00;11.97;;;;;;;;;;5035827;28;20022;-86
2022/12/09 13:16:57;;;;;;;27.63;10.77;;;;;;;;;;5034642;28;20033;-86
2022/12/09 13:19:25;;;;;;;31.33;13.17;;;;;;;;;;5033142;28;20018;-86
2022/12/09 13:21:50;;;;;;;28.67;11.93;;;;;;;;;;5049121;28;20026;-86
2022/12/09 13:24:36;;;;;;;30.73;12.33;;;;;;;;;;5033151;28;20029;-86
2022/12/09 13:27:13;;;;;;;27.20;11.27;;;;;;;;;;5049781;28;20059;-87
2022/12/09 13:29:46;;;;;;;26.03;10.10;;;;;;;;;;5033004;28;20017;-85
2022/12/09 13:32:18;;;;;;;31.50;11.20;;;;;;;;;;5032461;28;20047;-86
2022/12/09 13:34:48;;;;;;;33.03;12.43;;;;;;;;;;5032800;28;20053;-86
2022/12/09 13:37:29;;;;;;;35.67;12.33;;;;;;;;;;5034706;28;20466;-86
2022/12/09 13:39:55;;;;;;;26.87;11.80;;;;;;;;;;5041730;28;20021;-86
2022/12/09 13:45:22;;;;;;;30.93;11.27;;;;;;;;;;5034002;28;20389;-86
2022/12/09 13:47:48;;;;;;;30.13;11.87;;;;;;;;;;5049613;28;20018;-85
2022/12/09 13:50:23;;;;;;;26.60;11.13;;;;;;;;;;5032751;28;20539;-86
2022/12/09 13:52:54;;;;;;;31.37;11.53;;;;;;;;;;5032002;28;20018;-86
2022/12/09 13:55:30;;;;;;;30.43;11.67;;;;;;;;;;5032535;28;20036;-87
2022/12/09 13:58:00;;;;;;;33.17;12.23;;;;;;;;;;5026388;28;20075;-87
2022/12/09 14:00:26;;;;;;;26.70;10.57;;;;;;;;;;5031545;28;20026;-86
2022/12/09 14:02:54;;;;;;;33.27;12.83;;;;;;;;;;5032923;28;20370;-86
2022/12/09 14:05:27;;;;;;;38.10;14.77;;;;;;;;;;5031411;28;20108;-86
2022/12/09 14:07:52;;;;;;;27.08;11.63;;;;;;;;;;5033728;28;20140;-86
2022/12/09 14:10:37;;;;;;;33.63;12.90;;;;;;;;;;5032516;28;20036;-87
2022/12/09 14:13:23;;;;;;;29.00;11.93;;;;;;;;;;5031776;28;20017;-87
2022/12/09 14:16:07;;;;;;;32.33;11.90;;;;;;;;;;5031932;28;20014;-87
2022/12/09 14:18:32;;;;;;;30.43;11.00;;;;;;;;;;5032032;28;20083;-87
2022/12/09 14:21:16;;;;;;;34.40;12.60;;;;;;;;;;5032334;28;20422;-86
2022/12/09 14:24:01;;;;;;;35.07;12.90;;;;;;;;;;5048904;28;20025;-86
2022/12/09 14:26:36;;;;;;;39.73;12.57;;;;;;;;;;5020065;28;20029;-86
2022/12/09 14:29:03;;;;;;;32.47;11.07;;;;;;;;;;5033502;28;20426;-86